createdAt,value
2023-01-04T00:01:10.217Z,4.90
2023-01-04T00:03:38.266Z,8.07
2023-01-04T00:06:05.999Z,7.23
2023-01-04T00:08:34.546Z,4.30
2023-01-04T00:11:02.964Z,7.10
2023-01-04T00:13:33.432Z,6.57
2023-01-04T00:16:07.825Z,6.40
2023-01-04T00:18:35.495Z,6.53
2023-01-04T00:21:15.404Z,5.20
2023-01-04T00:23:43.277Z,6.93
2023-01-04T00:26:13.812Z,6.83
2023-01-04T00:28:41.227Z,6.40
2023-01-04T00:31:09.323Z,5.50
2023-01-04T00:33:35.944Z,7.70
2023-01-04T00:36:12.075Z,5.70
2023-01-04T00:38:38.474Z,7.13
2023-01-04T00:41:06.368Z,4.43
2023-01-04T00:43:34.259Z,6.67
2023-01-04T00:46:01.697Z,6.33
2023-01-04T00:48:28.765Z,10.17
2023-01-04T00:50:55.529Z,12.73
2023-01-04T00:53:23.112Z,7.83
2023-01-04T00:55:49.533Z,6.50
2023-01-04T00:58:16.069Z,6.53
2023-01-04T01:00:42.461Z,8.20
2023-01-04T01:03:10.837Z,9.07
2023-01-04T01:05:37.368Z,7.20
2023-01-04T01:08:24.107Z,6.63
2023-01-04T01:10:50.956Z,7.20
2023-01-04T01:13:17.341Z,6.10
2023-01-04T01:15:44.040Z,6.30
2023-01-04T01:18:10.599Z,9.33
2023-01-04T01:20:41.810Z,8.10
2023-01-04T01:23:08.151Z,5.93
2023-01-04T01:25:34.605Z,6.00
2023-01-04T01:28:00.913Z,8.27
2023-01-04T01:30:29.433Z,6.50
2023-01-04T01:32:55.781Z,6.77
2023-01-04T01:35:22.082Z,5.67
2023-01-04T01:37:48.752Z,7.67
2023-01-04T01:40:17.946Z,8.23
2023-01-04T01:42:44.425Z,5.13
2023-01-04T01:45:38.053Z,10.23
2023-01-04T01:48:11.379Z,7.97
2023-01-04T01:50:41.412Z,8.27
2023-01-04T01:53:08.937Z,9.43
2023-01-04T01:55:36.237Z,5.53
2023-01-04T01:58:05.073Z,8.80
2023-01-04T02:00:31.662Z,8.80
2023-01-04T02:03:19.407Z,7.93
2023-01-04T02:05:47.930Z,7.57
2023-01-04T02:08:14.824Z,8.40
2023-01-04T02:10:42.424Z,12.27
2023-01-04T02:13:11.391Z,9.27
2023-01-04T02:15:48.697Z,10.23
2023-01-04T02:18:17.938Z,7.33
2023-01-04T02:20:50.836Z,13.33
2023-01-04T02:23:32.335Z,9.23
2023-01-04T02:26:12.299Z,8.73
2023-01-04T02:28:46.379Z,9.30
2023-01-04T02:31:23.102Z,8.47
2023-01-04T02:34:03.454Z,8.13
2023-01-04T02:36:39.962Z,7.10
2023-01-04T02:39:25.142Z,7.65
2023-01-04T02:41:59.372Z,7.83
2023-01-04T02:44:49.677Z,7.93
2023-01-04T02:47:17.834Z,8.80
2023-01-04T02:50:05.414Z,7.37
2023-01-04T02:52:34.267Z,8.67
2023-01-04T02:55:04.189Z,8.33
2023-01-04T02:57:42.853Z,7.13
2023-01-04T03:00:19.856Z,7.73
2023-01-04T03:03:12.441Z,9.73
2023-01-04T03:06:06.284Z,11.57
2023-01-04T03:08:46.511Z,10.07
2023-01-04T03:11:34.671Z,8.93
2023-01-04T03:14:31.433Z,8.57
2023-01-04T03:16:51.621Z,12.77
2023-01-04T03:19:41.396Z,6.97
2023-01-04T03:22:29.488Z,8.77
2023-01-04T03:25:17.665Z,9.47
2023-01-04T03:28:06.105Z,9.93
2023-01-04T03:30:53.633Z,8.80
2023-01-04T03:33:38.881Z,9.83
2023-01-04T03:36:11.315Z,9.77
2023-01-04T03:38:56.491Z,10.53
2023-01-04T03:41:48.473Z,11.37
2023-01-04T03:44:33.748Z,10.10
2023-01-04T03:47:23.387Z,8.73
2023-01-04T03:50:05.007Z,12.20
2023-01-04T03:52:33.328Z,10.73
2023-01-04T03:55:00.549Z,11.97
2023-01-04T03:57:26.957Z,9.13
2023-01-04T03:59:56.362Z,10.07
2023-01-04T04:02:25.124Z,13.17
2023-01-04T04:05:10.404Z,10.07
2023-01-04T04:07:55.377Z,8.50
2023-01-04T04:10:21.913Z,12.73
2023-01-04T04:12:48.912Z,8.30
2023-01-04T04:15:15.698Z,10.20
2023-01-04T04:17:44.913Z,10.13
2023-01-04T04:20:13.778Z,12.07
2023-01-04T04:22:41.006Z,11.37
2023-01-04T04:25:07.525Z,10.93
2023-01-04T04:27:36.700Z,10.87
2023-01-04T04:30:03.414Z,8.23
2023-01-04T04:32:30.074Z,7.20
2023-01-04T04:34:56.861Z,8.67
2023-01-04T04:37:25.971Z,8.67
2023-01-04T04:39:53.791Z,6.70
2023-01-04T04:42:20.177Z,9.27
2023-01-04T04:44:48.128Z,9.10
2023-01-04T04:47:14.548Z,11.47
2023-01-04T04:49:40.859Z,10.83
2023-01-04T04:52:07.281Z,14.27
2023-01-04T04:54:34.038Z,8.80
2023-01-04T04:57:00.538Z,11.00
2023-01-04T04:59:27.538Z,10.37
2023-01-04T05:01:54.379Z,11.07
2023-01-04T05:04:20.798Z,10.13
2023-01-04T05:06:49.403Z,10.30
2023-01-04T05:09:16.121Z,8.67
2023-01-04T05:12:01.399Z,9.90
2023-01-04T05:14:28.123Z,8.60
2023-01-04T05:16:55.802Z,8.20
2023-01-04T05:19:26.829Z,7.80
2023-01-04T05:21:53.119Z,9.20
2023-01-04T05:24:26.382Z,10.40
2023-01-04T05:26:52.649Z,9.13
2023-01-04T05:29:41.029Z,8.47
2023-01-04T05:34:36.148Z,8.23
2023-01-04T05:37:02.536Z,7.80
2023-01-04T05:39:31.035Z,12.27
2023-01-04T05:42:17.017Z,8.87
2023-01-04T05:44:45.787Z,8.27
2023-01-04T05:47:15.029Z,7.90
2023-01-04T05:49:41.982Z,15.10
2023-01-04T05:52:08.366Z,9.97
2023-01-04T05:54:41.766Z,8.37
2023-01-04T05:57:08.439Z,6.97
2023-01-04T05:59:41.172Z,7.90
2023-01-04T06:02:13.144Z,6.20
2023-01-04T06:04:41.451Z,6.90
2023-01-04T06:07:07.884Z,7.83
2023-01-04T06:09:34.252Z,13.97
2023-01-04T06:12:00.629Z,8.97
2023-01-04T06:14:27.033Z,8.57
2023-01-04T06:16:54.834Z,7.90
2023-01-04T06:19:21.278Z,6.80
2023-01-04T06:21:47.626Z,7.90
2023-01-04T06:24:13.990Z,13.00
2023-01-04T06:26:41.605Z,9.57
2023-01-04T06:29:09.061Z,7.70
2023-01-04T06:31:36.016Z,10.93
2023-01-04T06:34:10.021Z,7.27
2023-01-04T06:36:38.006Z,9.80
2023-01-04T06:39:04.689Z,10.60
2023-01-04T06:41:31.005Z,9.63
2023-01-04T06:43:57.466Z,11.73
2023-01-04T06:46:23.902Z,11.60
2023-01-04T06:48:53.885Z,13.27
2023-01-04T06:51:23.013Z,11.60
2023-01-04T06:53:49.630Z,8.20
2023-01-04T06:56:16.509Z,12.03
2023-01-04T06:58:42.970Z,7.70
2023-01-04T07:01:09.837Z,9.97
2023-01-04T07:03:37.747Z,8.33
2023-01-04T07:06:05.954Z,11.63
2023-01-04T07:08:34.154Z,10.27
2023-01-04T07:11:00.813Z,8.63
2023-01-04T07:13:27.470Z,10.57
2023-01-04T07:15:53.949Z,11.63
2023-01-04T07:18:20.522Z,12.07
2023-01-04T07:20:48.175Z,8.63
2023-01-04T07:23:14.514Z,12.23
2023-01-04T07:25:41.985Z,7.03
2023-01-04T07:28:09.347Z,9.70
2023-01-04T07:30:36.129Z,6.67
2023-01-04T07:33:02.488Z,10.70
2023-01-04T07:35:28.956Z,11.23
2023-01-04T07:37:59.024Z,10.20
2023-01-04T07:40:26.145Z,11.33
2023-01-04T07:42:57.401Z,10.50
2023-01-04T07:45:24.141Z,8.87
2023-01-04T07:47:50.481Z,11.47
2023-01-04T07:50:19.800Z,9.30
2023-01-04T07:52:46.073Z,9.63
2023-01-04T07:55:12.354Z,8.90
2023-01-04T07:57:40.005Z,8.50
2023-01-04T08:00:08.499Z,10.53
2023-01-04T08:02:38.745Z,7.77
2023-01-04T08:05:06.659Z,6.93
2023-01-04T08:07:33.013Z,6.83
2023-01-04T08:09:59.326Z,8.07
2023-01-04T08:12:25.910Z,8.13
2023-01-04T08:14:52.296Z,8.27
2023-01-04T08:17:18.625Z,7.37
2023-01-04T08:19:46.601Z,7.37
2023-01-04T08:22:13.430Z,6.33
2023-01-04T08:24:39.715Z,7.50
2023-01-04T08:27:07.852Z,10.47
2023-01-04T08:29:35.310Z,7.63
2023-01-04T08:32:01.824Z,8.30
2023-01-04T08:34:28.436Z,5.13
2023-01-04T08:36:54.851Z,9.83
2023-01-04T08:39:22.711Z,6.87
2023-01-04T08:42:00.517Z,6.27
2023-01-04T08:44:32.316Z,5.93
2023-01-04T08:46:59.545Z,5.37
2023-01-04T08:49:26.433Z,5.63
2023-01-04T08:51:52.856Z,6.03
2023-01-04T08:54:19.866Z,5.90
2023-01-04T08:56:47.420Z,9.93
2023-01-04T08:59:14.016Z,4.90
2023-01-04T09:01:40.817Z,6.17
2023-01-04T09:04:07.729Z,7.50
2023-01-04T09:06:34.644Z,4.43
2023-01-04T09:09:02.340Z,4.63
2023-01-04T09:11:30.518Z,8.77
2023-01-04T09:14:04.564Z,4.20
2023-01-04T09:16:33.813Z,6.77
2023-01-04T09:19:01.356Z,4.83
2023-01-04T09:21:27.822Z,4.57
2023-01-04T09:23:54.265Z,5.67
2023-01-04T09:26:22.217Z,5.87
2023-01-04T09:28:56.695Z,4.80
2023-01-04T09:31:27.854Z,5.13
2023-01-04T09:36:41.192Z,5.10
2023-01-04T09:39:07.681Z,5.33
2023-01-04T09:41:38.881Z,5.33
2023-01-04T09:44:22.933Z,11.30
2023-01-04T09:46:53.152Z,6.40
2023-01-04T09:49:38.257Z,4.70
2023-01-04T09:52:06.908Z,5.77
2023-01-04T09:54:44.082Z,5.07
2023-01-04T09:57:30.663Z,3.40
2023-01-04T09:59:59.732Z,3.70
2023-01-04T10:02:31.791Z,4.63
2023-01-04T10:05:00.297Z,6.43
2023-01-04T10:07:28.268Z,4.70
2023-01-04T10:09:55.554Z,3.93
2023-01-04T10:12:41.382Z,4.33
2023-01-04T10:15:18.076Z,3.50
2023-01-04T10:21:26.366Z,4.10
2023-01-04T10:24:07.648Z,4.77
2023-01-04T10:26:44.858Z,3.43
2023-01-04T10:29:25.053Z,4.43
2023-01-04T10:31:54.967Z,3.33
2023-01-04T10:34:27.028Z,4.17
2023-01-04T10:37:14.215Z,3.53
2023-01-04T10:39:47.775Z,3.80
2023-01-04T10:42:17.990Z,5.93
2023-01-04T10:44:53.485Z,3.20
2023-01-04T10:47:32.548Z,4.47
2023-01-04T10:50:00.515Z,3.13
2023-01-04T10:52:32.818Z,3.70
2023-01-04T10:55:17.648Z,3.03
2023-01-04T10:57:50.699Z,6.13
2023-01-04T11:00:24.373Z,3.57
2023-01-04T11:02:50.974Z,4.20
2023-01-04T11:05:26.442Z,3.43
2023-01-04T11:07:52.866Z,3.83
2023-01-04T11:10:22.448Z,5.47
2023-01-04T11:12:48.955Z,4.03
2023-01-04T11:15:15.396Z,4.13
2023-01-04T11:17:43.159Z,4.87
2023-01-04T11:20:09.906Z,2.83
2023-01-04T11:22:40.513Z,4.93
2023-01-04T11:28:07.170Z,4.83
2023-01-04T11:30:48.140Z,3.40
2023-01-04T11:33:19.134Z,2.87
2023-01-04T11:35:48.547Z,2.80
2023-01-04T11:38:18.765Z,3.37
2023-01-04T11:40:54.545Z,1.90
2023-01-04T11:43:21.971Z,2.53
2023-01-04T11:45:56.259Z,2.10
2023-01-04T11:48:45.329Z,2.67
2023-01-04T11:51:19.881Z,3.13
2023-01-04T11:53:56.182Z,3.10
2023-01-04T11:56:23.417Z,2.15
2023-01-04T11:59:04.733Z,2.67
2023-01-04T12:01:32.750Z,2.97
2023-01-04T12:04:00.832Z,2.97
2023-01-04T12:06:50.679Z,3.70
2023-01-04T12:09:18.712Z,3.03
2023-01-04T12:11:49.817Z,3.53
2023-01-04T12:14:36.522Z,4.10
2023-01-04T12:17:03.664Z,2.33
2023-01-04T12:19:30.784Z,2.23
2023-01-04T12:21:58.818Z,2.57
2023-01-04T12:24:35.437Z,2.73
2023-01-04T12:27:02.216Z,3.17
2023-01-04T12:29:34.406Z,2.67
2023-01-04T12:32:01.008Z,3.67
2023-01-04T12:34:30.671Z,2.57
2023-01-04T12:37:04.920Z,2.03
2023-01-04T12:39:35.173Z,2.60
2023-01-04T12:42:01.678Z,2.80
2023-01-04T12:44:37.399Z,2.53
2023-01-04T12:47:28.430Z,3.30
2023-01-04T12:49:57.599Z,1.97
2023-01-04T12:52:42.672Z,2.13
2023-01-04T12:55:19.501Z,2.22
2023-01-04T12:57:46.856Z,2.40
2023-01-04T13:00:14.191Z,2.03
2023-01-04T13:02:48.066Z,2.47
2023-01-04T13:08:09.294Z,2.33
2023-01-04T13:10:37.100Z,3.00
2023-01-04T13:13:13.571Z,2.90
2023-01-04T13:15:58.513Z,7.25
2023-01-04T13:18:28.113Z,2.90
2023-01-04T13:20:55.889Z,2.87
2023-01-04T13:23:24.366Z,2.73
2023-01-04T13:25:50.878Z,2.50
2023-01-04T13:28:18.113Z,2.17
2023-01-04T13:30:46.643Z,3.57
2023-01-04T13:33:28.965Z,3.50
2023-01-04T13:36:04.583Z,2.90
2023-01-04T13:38:33.671Z,3.72
2023-01-04T13:41:00.366Z,3.40
2023-01-04T13:43:26.949Z,3.30
2023-01-04T13:46:06.762Z,3.93
2023-01-04T13:48:37.914Z,3.07
2023-01-04T13:51:22.365Z,2.87
2023-01-04T13:53:53.129Z,2.57
2023-01-04T13:56:21.368Z,2.57
2023-01-04T13:58:51.246Z,2.57
2023-01-04T14:01:28.605Z,2.03
2023-01-04T14:03:59.136Z,2.97
2023-01-04T14:06:30.908Z,2.90
2023-01-04T14:09:00.936Z,2.33
2023-01-04T14:11:47.975Z,2.27
2023-01-04T14:19:32.049Z,2.67
2023-01-04T14:22:01.854Z,3.43
2023-01-04T14:25:08.440Z,3.23
2023-01-04T14:27:34.651Z,2.20
2023-01-04T14:30:15.991Z,2.53
2023-01-04T14:32:52.745Z,1.93
2023-01-04T14:35:22.443Z,2.57
2023-01-04T14:37:48.806Z,1.47
2023-01-04T14:40:16.248Z,1.63
2023-01-04T14:42:42.808Z,2.17
2023-01-04T14:45:14.565Z,3.87
2023-01-04T14:47:42.446Z,1.47
2023-01-04T14:50:09.155Z,2.63
2023-01-04T14:52:35.630Z,2.20
2023-01-04T14:55:04.903Z,2.43
2023-01-04T14:57:31.759Z,2.13
2023-01-04T15:00:00.991Z,1.87
2023-01-04T15:02:30.226Z,1.80
2023-01-04T15:04:58.651Z,2.23
2023-01-04T15:07:35.762Z,1.80
2023-01-04T15:10:06.756Z,1.63
2023-01-04T15:12:33.206Z,2.43
2023-01-04T15:14:59.705Z,1.43
2023-01-04T15:17:29.472Z,2.13
2023-01-04T15:19:58.156Z,2.47
2023-01-04T15:22:24.488Z,1.93
2023-01-04T15:24:50.839Z,1.57
2023-01-04T15:27:18.203Z,1.30
2023-01-04T15:29:46.125Z,1.53
2023-01-04T15:32:13.571Z,2.10
2023-01-04T15:34:46.436Z,1.23
2023-01-04T15:37:20.080Z,1.20
2023-01-04T15:39:50.070Z,1.13
2023-01-04T15:42:35.087Z,1.03
2023-01-04T15:45:02.644Z,0.87
2023-01-04T15:47:29.762Z,1.10
2023-01-04T15:49:56.413Z,1.40
2023-01-04T15:52:23.214Z,1.20
2023-01-04T15:54:49.753Z,0.77
2023-01-04T15:57:16.323Z,0.93
2023-01-04T15:59:42.745Z,0.80
2023-01-04T16:02:11.130Z,1.13
2023-01-04T16:04:38.172Z,0.83
2023-01-04T16:07:04.560Z,1.20
2023-01-04T16:09:30.921Z,1.10
2023-01-04T16:12:16.108Z,1.07
2023-01-04T16:14:44.399Z,1.23
2023-01-04T16:17:10.977Z,1.40
2023-01-04T16:19:37.320Z,1.20
2023-01-04T16:22:04.910Z,1.60
2023-01-04T16:27:19.514Z,0.90
2023-01-04T16:29:46.604Z,0.90
2023-01-04T16:32:13.752Z,1.20
2023-01-04T16:34:40.441Z,1.10
2023-01-04T16:37:10.949Z,0.97
2023-01-04T16:42:26.103Z,1.00
2023-01-04T16:44:52.571Z,0.67
2023-01-04T16:47:30.903Z,1.17
2023-01-04T16:49:57.452Z,1.20
2023-01-04T16:52:39.547Z,0.83
2023-01-04T16:55:07.008Z,1.03
2023-01-04T17:00:23.575Z,0.63
2023-01-04T17:02:58.063Z,1.57
2023-01-04T17:05:25.499Z,1.03
2023-01-04T17:07:52.759Z,1.57
2023-01-04T17:10:25.553Z,0.60
2023-01-04T17:12:56.265Z,1.07
2023-01-04T17:15:42.955Z,0.70
2023-01-04T17:18:12.390Z,1.70
2023-01-04T17:20:44.680Z,0.80
2023-01-04T17:23:11.057Z,1.20
2023-01-04T17:25:37.354Z,1.17
2023-01-04T17:28:03.894Z,1.07
2023-01-04T17:30:30.306Z,0.63
2023-01-04T17:32:56.661Z,1.33
2023-01-04T17:35:23.015Z,1.30
2023-01-04T17:37:49.347Z,0.77
2023-01-04T17:40:22.659Z,1.33
2023-01-04T17:42:52.283Z,1.07
2023-01-04T17:45:18.965Z,0.90
2023-01-04T17:47:45.332Z,1.07
2023-01-04T17:50:11.972Z,1.13
2023-01-04T17:52:38.380Z,1.60
2023-01-04T17:55:04.997Z,0.80
2023-01-04T17:57:32.909Z,1.03
2023-01-04T18:00:00.351Z,1.70
2023-01-04T18:02:27.177Z,1.13
2023-01-04T18:04:55.163Z,1.30
2023-01-04T18:07:24.999Z,0.73
2023-01-04T18:09:51.976Z,0.90
2023-01-04T18:12:18.711Z,1.23
2023-01-04T18:14:45.435Z,1.07
2023-01-04T18:17:11.945Z,1.30
2023-01-04T18:19:40.352Z,0.70
2023-01-04T18:22:08.760Z,1.00
2023-01-04T18:24:37.095Z,0.97
2023-01-04T18:27:22.552Z,1.33
2023-01-04T18:29:50.293Z,0.60
2023-01-04T18:32:17.757Z,1.37
2023-01-04T18:34:47.120Z,1.13
2023-01-04T18:37:15.588Z,1.07
2023-01-04T18:39:46.026Z,1.27
2023-01-04T18:42:13.666Z,1.40
2023-01-04T18:44:47.432Z,0.60
2023-01-04T18:47:16.514Z,0.60
2023-01-04T18:49:44.209Z,1.00
2023-01-04T18:52:10.957Z,1.43
2023-01-04T18:54:37.347Z,1.00
2023-01-04T18:57:05.320Z,1.17
2023-01-04T18:59:31.956Z,0.93
2023-01-04T19:02:01.837Z,1.03
2023-01-04T19:04:31.579Z,1.17
2023-01-04T19:07:00.324Z,0.97
2023-01-04T19:09:30.601Z,0.97
2023-01-04T19:12:07.556Z,0.80
2023-01-04T19:14:34.958Z,1.07
2023-01-04T19:17:05.013Z,1.17
2023-01-04T19:19:32.857Z,1.77
2023-01-04T19:22:07.580Z,1.73
2023-01-04T19:24:34.816Z,1.67
2023-01-04T19:27:05.574Z,1.37
2023-01-04T19:29:34.161Z,2.20
2023-01-04T19:32:00.994Z,1.03
2023-01-04T19:34:27.602Z,1.17
2023-01-04T19:36:54.157Z,1.20
2023-01-04T19:39:20.488Z,1.77
2023-01-04T19:41:47.137Z,1.07
2023-01-04T19:44:14.485Z,1.07
2023-01-04T19:46:40.902Z,1.43
2023-01-04T19:49:14.292Z,0.63
2023-01-04T19:51:43.656Z,1.87
2023-01-04T19:54:11.149Z,0.83
2023-01-04T19:56:37.678Z,1.73
2023-01-04T19:59:04.117Z,0.97
2023-01-04T20:01:30.997Z,1.13
2023-01-04T20:04:01.057Z,0.70
2023-01-04T20:06:27.857Z,0.50
2023-01-04T20:08:54.280Z,0.60
2023-01-04T20:11:21.277Z,0.70
2023-01-04T20:13:47.885Z,0.77
2023-01-04T20:16:14.282Z,1.20
2023-01-04T20:18:41.031Z,1.00
2023-01-04T20:21:11.276Z,0.87
2023-01-04T20:23:40.780Z,2.17
2023-01-04T20:26:13.349Z,1.33
2023-01-04T20:28:43.993Z,1.13
2023-01-04T20:31:11.900Z,1.23
2023-01-04T20:33:38.293Z,1.27
2023-01-04T20:36:08.816Z,1.63
2023-01-04T20:38:40.085Z,1.47
2023-01-04T20:41:11.562Z,0.73
2023-01-04T20:43:39.771Z,1.17
2023-01-04T20:46:11.727Z,1.10
2023-01-04T20:48:43.746Z,1.50
2023-01-04T20:51:12.714Z,1.70
2023-01-04T20:53:44.585Z,1.83
2023-01-04T20:56:15.944Z,1.93
2023-01-04T20:58:46.001Z,1.10
2023-01-04T21:01:14.045Z,1.83
2023-01-04T21:03:40.863Z,1.10
2023-01-04T21:06:08.579Z,1.80
2023-01-04T21:08:36.988Z,1.70
2023-01-04T21:11:03.774Z,1.60
2023-01-04T21:13:32.586Z,1.20
2023-01-04T21:15:59.299Z,1.53
2023-01-04T21:18:27.528Z,1.47
2023-01-04T21:20:55.043Z,1.73
2023-01-04T21:23:22.732Z,1.20
2023-01-04T21:25:50.304Z,1.33
2023-01-04T21:28:18.307Z,2.43
2023-01-04T21:30:47.273Z,1.17
2023-01-04T21:33:14.814Z,1.93
2023-01-04T21:35:41.492Z,1.27
2023-01-04T21:38:08.420Z,1.93
2023-01-04T21:40:37.691Z,0.83
2023-01-04T21:43:06.290Z,1.73
2023-01-04T21:45:33.925Z,0.90
2023-01-04T21:48:00.371Z,1.60
2023-01-04T21:50:30.515Z,1.73
2023-01-04T21:52:59.533Z,0.80
2023-01-04T21:55:30.855Z,0.87
2023-01-04T21:58:00.391Z,1.10
2023-01-04T22:00:26.859Z,1.27
2023-01-04T22:02:53.266Z,0.87
2023-01-04T22:05:21.736Z,0.93
2023-01-04T22:07:49.303Z,0.97
2023-01-04T22:10:15.787Z,2.20
2023-01-04T22:12:44.764Z,1.50
2023-01-04T22:15:11.991Z,1.40
2023-01-04T22:17:38.929Z,0.97
2023-01-04T22:20:08.795Z,1.13
2023-01-04T22:22:35.373Z,2.50
2023-01-04T22:25:03.308Z,1.93
2023-01-04T22:27:29.653Z,2.50
2023-01-04T22:29:56.243Z,0.80
2023-01-04T22:32:24.274Z,1.60
2023-01-04T22:34:50.544Z,1.87
2023-01-04T22:37:16.943Z,0.67
2023-01-04T22:39:43.517Z,1.13
2023-01-04T22:42:10.071Z,1.13
2023-01-04T22:44:38.572Z,0.73
2023-01-04T22:47:05.923Z,1.70
2023-01-04T22:49:33.299Z,2.20
2023-01-04T22:52:01.192Z,1.13
2023-01-04T22:54:28.727Z,3.60
2023-01-04T22:56:55.303Z,3.13
2023-01-04T22:59:23.235Z,1.33
2023-01-04T23:01:49.826Z,2.93
2023-01-04T23:04:17.578Z,1.33
2023-01-04T23:06:44.465Z,5.47
2023-01-04T23:09:14.533Z,2.07
2023-01-04T23:11:41.933Z,3.27
2023-01-04T23:14:09.845Z,2.30
2023-01-04T23:16:36.163Z,1.20
2023-01-04T23:19:03.244Z,2.23
2023-01-04T23:21:30.389Z,1.93
2023-01-04T23:23:56.793Z,3.93
2023-01-04T23:26:25.621Z,2.50
2023-01-04T23:28:51.948Z,1.30
2023-01-04T23:31:21.386Z,1.23
2023-01-04T23:33:51.228Z,1.47
2023-01-04T23:36:18.501Z,1.97
2023-01-04T23:38:54.664Z,1.20
2023-01-04T23:41:24.877Z,1.20
2023-01-04T23:43:51.154Z,2.17
2023-01-04T23:46:19.655Z,1.27
2023-01-04T23:48:46.911Z,1.73
2023-01-04T23:51:13.286Z,2.20
2023-01-04T23:53:40.322Z,2.47
2023-01-04T23:56:07.950Z,2.57
2023-01-04T23:58:36.703Z,1.80
